Terminal Aerodrome Forecast
Issued by NWS Corpus Christi, TX

Home | Current Version | Previous Version | Text Only | Print | Product List | Glossary On
Versions: 1 2 3 4 5 6 7 8 9 10 11 12 13 14 15 16 17 18 19 20 21 22 23 24
000
FTUS44 KCRP 260830 AAB
TAFVCT
TAF AMD
KVCT 260830Z 2609/2706 15004KT 5SM BR BKN009 OVC012
      TEMPO 2609/2613 3SM BR SCT009 BKN012
     FM261600 15012KT P6SM SCT018 BKN035
     FM261900 14013KT P6SM SCT040 BKN250
     FM270100 14008KT P6SM BKN015
      TEMPO 2701/2704 SCT015 BKN250=

USA.gov is the U.S. government's official web portal to all federal, state and local government web resources and services.